Lebanon Municipal Airport Lebanon US
ICAO: KLEB
IATA: LEB
Category: Medium
Scheduled Services: Yes

Elevation: 603 ft
TransAlt. 18000 ft.

Airport Communications:
BOSTON APP/DEP:134.7
ASOS:118.65
ATIS:118.65
CTAF:125.95
GND:121.6
BANGOR RDO:122.2
TWR:125.95
UNICOM:122.95

KLEB Zoom In..

If you have problems with the map follow the link
https://www.worldairports.se/pages/airport.php?
ICAO=KLEB

Runways:

(A) RW 07 length 5496 ft width 100 ft
---- / hdg 75

(B) RW 18 length 5200 ft width 100 ft
ILS 111.90 / hdg 184

(C) RW 25 length 5496 ft width 100 ft
---- / hdg 255

(D) RW 36 length 5200 ft width 100 ft
---- / hdg 4

Location; KLEB
Day. 17 / Time. 02.38 Zulu
* Altimeter: 29.69
* Temperature: -01° c. -30.2°f.
* Wind from: 000° Speed 00 kn.
Dewpoint: -03° c.
Visibility: 10 Statute Miles.
Clouds: Scattered 2900 ft.
Clouds: Broken 3500 ft.
Clouds: Overcast 5000 ft.

KLEB 170238Z 00000KT 10SM SCT029 BKN035 OVC050 M01/M03 A2969 RMK AO2 P0001 T10111028


Wind - Calm.

 
 
jpsmedia.com for Web Design worldairports.se 2018   terms of use